Time;durP1;ratioP1;P1;durP2;ratioP2;P2;SDS_P1;SDS_P2;PMS_P1;PMS_P2;Temp;Humidity;BMP_temperature;BMP_pressure;BME280_temperature;BME280_humidity;BME280_pressure;Samples;Min_cycle;Max_cycle;Signal;HPM_P1;HPM_P2
2023/08/01 00:02:30;;;;;;;5.72;2.30;;;;;;;17.23;100.00;99782.75;5606232;31;33493;-68
2023/08/01 00:05:33;;;;;;;6.18;2.50;;;;;;;17.16;100.00;99779.31;5606396;31;33792;-68
2023/08/01 00:08:35;;;;;;;5.80;2.35;;;;;;;17.12;100.00;99781.63;5606211;31;33924;-68
2023/08/01 00:11:38;;;;;;;6.18;2.60;;;;;;;17.11;100.00;99788.03;5606368;31;33684;-68
2023/08/01 00:14:41;;;;;;;6.32;2.45;;;;;;;17.09;100.00;99782.06;5606177;31;34405;-68
2023/08/01 00:17:44;;;;;;;4.25;2.45;;;;;;;17.03;100.00;99780.31;5605784;31;34441;-68
2023/08/01 00:20:47;;;;;;;7.20;2.35;;;;;;;17.03;100.00;99785.66;5604826;31;34807;-68
2023/08/01 00:23:51;;;;;;;6.78;2.60;;;;;;;16.93;100.00;99783.50;5605609;31;33611;-68
2023/08/01 00:26:55;;;;;;;4.53;2.30;;;;;;;16.95;100.00;99791.31;5605653;31;34591;-68
2023/08/01 00:29:59;;;;;;;8.60;3.00;;;;;;;16.92;100.00;99787.22;5605688;31;33910;-68
2023/08/01 00:33:02;;;;;;;7.53;2.70;;;;;;;16.89;100.00;99790.34;5605499;31;34448;-68
2023/08/01 00:36:09;;;;;;;5.68;2.78;;;;;;;16.93;100.00;99791.53;5605170;31;32714;-68
2023/08/01 00:39:12;;;;;;;6.07;2.83;;;;;;;16.85;100.00;99791.81;5605468;31;34048;-69
2023/08/01 00:42:16;;;;;;;9.98;2.87;;;;;;;16.72;100.00;99789.28;5605919;31;33564;-68
2023/08/01 00:45:18;;;;;;;8.40;3.17;;;;;;;16.68;100.00;99773.88;5605504;31;33767;-68
2023/08/01 00:48:21;;;;;;;10.60;3.12;;;;;;;16.72;100.00;99769.72;5605292;31;34126;-68
2023/08/01 00:51:25;;;;;;;6.30;2.97;;;;;;;16.64;100.00;99775.38;5605302;31;33479;-68
2023/08/01 00:54:35;;;;;;;10.77;3.22;;;;;;;16.64;100.00;99767.34;5605250;31;33898;-68
2023/08/01 00:57:38;;;;;;;7.37;3.50;;;;;;;16.57;100.00;99771.91;5605549;31;34486;-68
2023/08/01 01:00:41;;;;;;;8.18;3.17;;;;;;;16.51;100.00;99757.53;5605142;31;33851;-68
2023/08/01 01:03:45;;;;;;;13.82;3.53;;;;;;;16.55;100.00;99758.75;5607139;31;34058;-68
2023/08/01 01:06:53;;;;;;;8.23;3.05;;;;;;;16.53;100.00;99755.47;5607939;31;33803;-68
2023/08/01 01:09:56;;;;;;;8.60;3.00;;;;;;;16.61;100.00;99749.84;5607080;31;34147;-68
2023/08/01 01:12:59;;;;;;;8.68;3.42;;;;;;;16.48;100.00;99745.41;5608202;31;33542;-67
2023/08/01 01:16:02;;;;;;;5.28;2.75;;;;;;;16.40;100.00;99740.38;5607888;31;34722;-68
2023/08/01 01:19:07;;;;;;;7.03;3.10;;;;;;;16.35;100.00;99742.87;5607885;31;33274;-68
2023/08/01 01:22:11;;;;;;;10.85;3.33;;;;;;;16.29;100.00;99745.62;5607284;31;34699;-68
2023/08/01 01:25:15;;;;;;;6.70;3.08;;;;;;;16.27;100.00;99751.19;5607705;31;34597;-67
2023/08/01 01:28:19;;;;;;;5.78;2.70;;;;;;;16.24;100.00;99745.44;5607761;31;33472;-69
2023/08/01 01:31:22;;;;;;;10.43;3.37;;;;;;;16.25;100.00;99736.38;5607720;31;33694;-69
2023/08/01 01:34:26;;;;;;;7.40;2.92;;;;;;;16.25;100.00;99733.72;5607598;31;33819;-68
2023/08/01 01:37:28;;;;;;;8.50;3.20;;;;;;;16.24;100.00;99729.38;5607692;31;33680;-69
2023/08/01 01:40:33;;;;;;;6.28;3.03;;;;;;;16.21;100.00;99733.34;5607690;31;33677;-68
2023/08/01 01:43:37;;;;;;;7.37;2.90;;;;;;;16.13;100.00;99728.25;5607503;31;34425;-69
2023/08/01 01:46:40;;;;;;;8.55;3.50;;;;;;;16.09;100.00;99729.72;5607391;31;34448;-68
2023/08/01 01:49:44;;;;;;;8.43;3.00;;;;;;;16.05;100.00;99732.03;5607452;31;34165;-68
2023/08/01 01:52:46;;;;;;;7.65;3.50;;;;;;;16.02;100.00;99732.44;5607455;31;33790;-68
2023/08/01 01:55:49;;;;;;;7.20;3.50;;;;;;;16.03;100.00;99723.38;5607735;31;34811;-68
2023/08/01 01:58:52;;;;;;;10.05;3.40;;;;;;;16.04;100.00;99722.34;5607702;31;33830;-68
2023/08/01 02:01:55;;;;;;;9.48;3.17;;;;;;;16.04;100.00;99717.00;5606481;31;34412;-68
2023/08/01 02:04:58;;;;;;;6.50;3.45;;;;;;;16.00;100.00;99715.81;5607715;31;33641;-68
2023/08/01 02:08:00;;;;;;;10.30;3.37;;;;;;;15.96;100.00;99713.78;5607237;31;33721;-68
2023/08/01 02:11:03;;;;;;;11.40;3.47;;;;;;;16.00;100.00;99701.63;5607317;31;34019;-68
2023/08/01 02:14:07;;;;;;;8.05;3.33;;;;;;;16.00;100.00;99698.94;5606533;31;34286;-68
2023/08/01 02:17:10;;;;;;;8.52;3.30;;;;;;;15.96;100.00;99697.75;5607237;31;34464;-68
2023/08/01 02:20:12;;;;;;;7.60;3.17;;;;;;;15.97;100.00;99694.88;5607464;31;33730;-68
2023/08/01 02:23:15;;;;;;;7.87;3.15;;;;;;;16.03;100.00;99695.81;5607291;31;34452;-68
2023/08/01 02:26:19;;;;;;;6.72;3.40;;;;;;;16.11;100.00;99695.56;5607068;31;34381;-68
2023/08/01 02:29:21;;;;;;;6.45;3.08;;;;;;;16.12;100.00;99701.72;5607182;31;34603;-68
2023/08/01 02:32:24;;;;;;;12.32;3.17;;;;;;;16.06;100.00;99698.06;5607083;31;33734;-68
2023/08/01 02:35:29;;;;;;;8.57;3.45;;;;;;;16.02;100.00;99700.34;5607066;31;33908;-68
2023/08/01 02:38:32;;;;;;;8.13;3.45;;;;;;;15.98;100.00;99691.13;5606908;31;33996;-68
2023/08/01 02:41:35;;;;;;;8.23;3.20;;;;;;;15.98;100.00;99699.16;5606953;31;33861;-68
2023/08/01 02:44:38;;;;;;;13.40;3.25;;;;;;;15.95;100.00;99696.91;5606879;31;34188;-68
2023/08/01 02:47:41;;;;;;;11.52;3.45;;;;;;;15.98;100.00;99692.97;5605986;31;34337;-68
2023/08/01 02:50:43;;;;;;;9.73;3.47;;;;;;;15.88;100.00;99690.78;5606913;31;33985;-68
2023/08/01 02:53:46;;;;;;;11.18;3.12;;;;;;;15.84;100.00;99696.81;5605930;31;34754;-68
2023/08/01 02:56:49;;;;;;;11.63;3.45;;;;;;;15.72;100.00;99683.34;5606914;31;33899;-68
2023/08/01 02:59:51;;;;;;;11.73;3.67;;;;;;;15.63;100.00;99687.31;5607130;31;34366;-68
2023/08/01 03:02:54;;;;;;;8.80;3.40;;;;;;;15.56;100.00;99683.84;5607022;31;33766;-68
2023/08/01 03:05:57;;;;;;;12.82;3.47;;;;;;;15.51;100.00;99689.03;5607152;31;34507;-68
2023/08/01 03:09:00;;;;;;;10.32;3.75;;;;;;;15.48;100.00;99697.47;5606946;31;33891;-68
2023/08/01 03:12:04;;;;;;;11.43;3.30;;;;;;;15.47;100.00;99688.63;5605992;31;34374;-68
2023/08/01 03:15:08;;;;;;;11.65;3.65;;;;;;;15.52;100.00;99685.34;5606010;31;33776;-69
2023/08/01 03:18:11;;;;;;;10.18;3.83;;;;;;;15.49;100.00;99686.53;5606828;31;35247;-68
2023/08/01 03:21:14;;;;;;;10.02;3.75;;;;;;;15.47;100.00;99695.81;5606633;31;34762;-68
2023/08/01 03:24:17;;;;;;;15.32;4.05;;;;;;;15.53;100.00;99692.31;5606778;31;33750;-68
2023/08/01 03:27:19;;;;;;;17.02;4.00;;;;;;;15.47;100.00;99682.47;5605887;31;33880;-68
2023/08/01 03:30:22;;;;;;;9.43;3.70;;;;;;;15.44;100.00;99681.03;5605821;31;33721;-69
2023/08/01 03:33:25;;;;;;;12.77;4.25;;;;;;;15.50;100.00;99669.47;5606907;31;33979;-69
2023/08/01 03:36:28;;;;;;;15.13;3.67;;;;;;;15.45;100.00;99671.16;5606458;31;33893;-68
2023/08/01 03:39:30;;;;;;;10.85;3.83;;;;;;;15.42;100.00;99680.44;5606510;31;34847;-68
2023/08/01 03:42:33;;;;;;;12.70;4.20;;;;;;;15.49;100.00;99678.53;5606389;31;33725;-68
2023/08/01 03:45:36;;;;;;;13.13;4.18;;;;;;;15.52;100.00;99675.47;5606198;31;33898;-68
2023/08/01 03:48:39;;;;;;;17.70;4.10;;;;;;;15.57;100.00;99667.63;5606286;31;33785;-68
2023/08/01 03:51:42;;;;;;;11.35;4.18;;;;;;;15.69;100.00;99667.72;5606165;31;33908;-68
2023/08/01 03:54:45;;;;;;;12.10;4.32;;;;;;;15.76;100.00;99671.16;5605347;31;33729;-68
2023/08/01 03:57:49;;;;;;;13.68;4.15;;;;;;;15.80;100.00;99672.34;5606272;31;33876;-68
2023/08/01 04:00:51;;;;;;;16.65;4.30;;;;;;;15.89;100.00;99676.38;5606206;31;33653;-68
2023/08/01 04:03:54;;;;;;;11.82;4.35;;;;;;;16.03;100.00;99669.06;5606157;31;33691;-68
2023/08/01 04:06:57;;;;;;;13.80;4.30;;;;;;;16.13;100.00;99668.56;5606044;31;33825;-68
2023/08/01 04:10:00;;;;;;;10.45;4.32;;;;;;;16.25;100.00;99669.47;5606374;31;34448;-68
2023/08/01 04:13:03;;;;;;;12.07;4.55;;;;;;;16.38;100.00;99680.03;5606015;31;33848;-68
2023/08/01 04:16:06;;;;;;;13.50;4.62;;;;;;;16.48;100.00;99680.34;5604584;31;33845;-68
2023/08/01 04:19:09;;;;;;;13.77;4.53;;;;;;;16.66;100.00;99675.00;5605954;31;33813;-68
2023/08/01 04:22:12;;;;;;;12.32;4.93;;;;;;;16.82;100.00;99668.22;5605626;31;34521;-68
2023/08/01 04:25:15;;;;;;;13.20;4.10;;;;;;;17.02;100.00;99657.25;5605798;31;33772;-69
2023/08/01 04:28:18;;;;;;;12.77;4.70;;;;;;;17.18;100.00;99670.84;5605691;31;33685;-69
2023/08/01 04:31:21;;;;;;;13.60;4.68;;;;;;;17.30;100.00;99668.19;5605013;31;34546;-68
2023/08/01 04:34:24;;;;;;;13.35;4.30;;;;;;;17.29;100.00;99662.00;5605525;31;33859;-69
2023/08/01 04:37:26;;;;;;;15.07;4.25;;;;;;;17.31;100.00;99667.97;5605987;31;33734;-69
2023/08/01 04:40:29;;;;;;;10.23;4.30;;;;;;;17.36;100.00;99668.09;5608396;31;33840;-69
2023/08/01 04:43:32;;;;;;;12.50;4.47;;;;;;;17.47;100.00;99657.63;5608360;31;33891;-69
2023/08/01 04:46:34;;;;;;;15.88;4.47;;;;;;;17.50;100.00;99662.53;5607962;31;33816;-69
2023/08/01 04:49:37;;;;;;;14.13;4.30;;;;;;;17.51;100.00;99659.63;5608167;31;34233;-69
2023/08/01 04:52:40;;;;;;;11.68;4.40;;;;;;;17.52;100.00;99655.91;5608005;31;33675;-69
2023/08/01 04:55:43;;;;;;;11.68;4.35;;;;;;;17.77;100.00;99667.25;5608044;31;33916;-69
2023/08/01 04:58:45;;;;;;;12.45;5.28;;;;;;;17.84;100.00;99667.16;5608292;31;33152;-69
2023/08/01 05:01:48;;;;;;;11.50;4.68;;;;;;;17.93;100.00;99660.41;5607890;31;33822;-69
2023/08/01 05:04:51;;;;;;;10.43;4.80;;;;;;;18.04;100.00;99653.41;5608267;31;34105;-69
2023/08/01 05:07:54;;;;;;;17.60;4.97;;;;;;;18.10;100.00;99652.47;5607688;31;34519;-69
2023/08/01 05:10:57;;;;;;;12.07;4.47;;;;;;;18.17;100.00;99655.84;5607448;31;34568;-69
2023/08/01 05:13:59;;;;;;;11.50;4.72;;;;;;;18.13;100.00;99655.50;5607803;31;33633;-69
2023/08/01 05:17:02;;;;;;;14.45;5.07;;;;;;;18.16;100.00;99660.41;5607877;31;33534;-69
2023/08/01 05:20:06;;;;;;;13.95;4.65;;;;;;;18.19;100.00;99659.13;5607713;31;34331;-69
2023/08/01 05:23:09;;;;;;;10.60;4.82;;;;;;;18.18;100.00;99655.63;5607634;31;33894;-68
2023/08/01 05:26:12;;;;;;;14.75;5.30;;;;;;;18.27;100.00;99653.38;5607666;31;33786;-68
2023/08/01 05:29:15;;;;;;;12.93;4.72;;;;;;;18.43;100.00;99644.63;5607593;31;33485;-69
2023/08/01 05:32:18;;;;;;;16.00;5.40;;;;;;;18.55;100.00;99658.84;5598663;31;33654;-68
2023/08/01 05:35:21;;;;;;;18.83;5.20;;;;;;;18.63;100.00;99646.94;5588926;31;34571;-69
2023/08/01 05:38:24;;;;;;;14.60;5.03;;;;;;;18.76;100.00;99653.91;5599012;31;34147;-69
2023/08/01 05:41:27;;;;;;;13.00;5.50;;;;;;;18.90;100.00;99657.94;5607587;31;34357;-69
2023/08/01 05:44:30;;;;;;;12.77;5.00;;;;;;;19.06;100.00;99651.81;5606485;31;33753;-69
2023/08/01 05:47:33;;;;;;;14.93;5.50;;;;;;;19.25;100.00;99655.12;5606534;31;33891;-69
2023/08/01 05:50:35;;;;;;;13.18;5.53;;;;;;;19.43;100.00;99655.72;5606248;31;34408;-68
2023/08/01 05:53:38;;;;;;;13.95;5.40;;;;;;;19.53;100.00;99657.78;5606395;31;33809;-68
2023/08/01 05:56:41;;;;;;;19.42;5.35;;;;;;;19.68;100.00;99652.66;5607753;31;34569;-68
2023/08/01 05:59:44;;;;;;;10.98;5.50;;;;;;;19.82;100.00;99648.56;5607358;31;34203;-69
2023/08/01 06:02:50;;;;;;;15.63;5.15;;;;;;;19.85;100.00;99648.06;5607336;31;34548;-69
2023/08/01 06:05:53;;;;;;;14.82;5.10;;;;;;;19.93;100.00;99641.47;5606411;31;33730;-69
2023/08/01 06:08:56;;;;;;;13.88;6.10;;;;;;;20.19;100.00;99645.34;5607150;31;33631;-70
2023/08/01 06:11:58;;;;;;;19.40;6.60;;;;;;;20.40;100.00;99649.97;5607030;31;33746;-69
2023/08/01 06:15:01;;;;;;;20.23;6.95;;;;;;;20.57;100.00;99658.03;5600103;31;33710;-69
2023/08/01 06:18:04;;;;;;;17.15;6.72;;;;;;;20.72;100.00;99659.00;5593645;31;33693;-69
2023/08/01 06:21:07;;;;;;;15.15;6.57;;;;;;;20.72;100.00;99655.53;5587243;31;34684;-70
2023/08/01 06:24:10;;;;;;;24.75;6.50;;;;;;;20.87;100.00;99652.16;5587000;31;33982;-70
2023/08/01 06:27:14;;;;;;;13.02;6.15;;;;;;;21.11;100.00;99642.72;5587137;31;35247;-71
2023/08/01 06:30:17;;;;;;;16.08;6.15;;;;;;;21.25;100.00;99647.47;5587314;31;33520;-70
2023/08/01 06:33:21;;;;;;;15.60;5.57;;;;;;;21.26;100.00;99640.19;5586587;31;33580;-70
2023/08/01 06:36:24;;;;;;;16.70;4.62;;;;;;;21.43;100.00;99649.00;5586428;31;34575;-70
2023/08/01 06:39:26;;;;;;;9.68;3.80;;;;;;;21.57;100.00;99634.03;5586748;31;34299;-71
2023/08/01 06:42:29;;;;;;;8.80;3.83;;;;;;;21.74;100.00;99641.16;5587401;31;33639;-70
2023/08/01 06:45:32;;;;;;;12.65;4.00;;;;;;;21.74;100.00;99638.44;5586319;31;33803;-70
2023/08/01 06:48:35;;;;;;;15.07;3.67;;;;;;;21.87;100.00;99635.31;5587053;31;33812;-71
2023/08/01 06:51:38;;;;;;;10.70;3.17;;;;;;;21.77;100.00;99632.56;5586238;31;34482;-71
2023/08/01 06:54:41;;;;;;;10.30;3.22;;;;;;;21.98;100.00;99628.94;5597936;31;33889;-71
2023/08/01 06:57:43;;;;;;;11.00;3.30;;;;;;;22.29;100.00;99630.75;5606933;31;34473;-70
2023/08/01 07:00:46;;;;;;;10.25;3.10;;;;;;;22.52;100.00;99629.50;5600370;31;33485;-71
2023/08/01 07:03:50;;;;;;;13.52;4.47;;;;;;;22.53;100.00;99626.53;5606358;31;33586;-71
2023/08/01 07:06:53;;;;;;;13.05;3.15;;;;;;;22.90;98.58;99629.13;5589529;31;34479;-71
2023/08/01 07:09:56;;;;;;;9.52;2.58;;;;;;;23.11;93.42;99624.59;5586913;31;33850;-71
2023/08/01 07:12:59;;;;;;;6.43;2.58;;;;;;;23.42;93.50;99627.34;5586881;31;33897;-71
2023/08/01 07:16:02;;;;;;;13.07;2.80;;;;;;;23.24;92.07;99617.81;5586255;31;33710;-71
2023/08/01 07:19:05;;;;;;;8.80;2.75;;;;;;;23.61;90.17;99621.13;5587099;31;33987;-70
2023/08/01 07:22:08;;;;;;;12.55;3.08;;;;;;;23.94;89.83;99617.03;5586712;31;34641;-70
2023/08/01 07:25:11;;;;;;;8.73;2.42;;;;;;;24.19;82.45;99624.34;5586672;31;34615;-71
2023/08/01 07:28:14;;;;;;;11.70;3.10;;;;;;;25.33;75.97;99612.37;5586861;31;33577;-69
2023/08/01 07:31:17;;;;;;;8.00;2.53;;;;;;;26.42;66.75;99620.09;5586800;31;33836;-71
2023/08/01 07:34:20;;;;;;;13.18;2.78;;;;;;;26.01;66.43;99623.22;5586624;31;34544;-71
2023/08/01 07:37:28;;;;;;;9.48;2.72;;;;;;;26.44;66.26;99612.44;5585770;31;33435;-71
2023/08/01 07:40:30;;;;;;;10.52;3.17;;;;;;;26.20;65.35;99617.84;5585751;31;34080;-70
2023/08/01 07:43:33;;;;;;;6.25;2.50;;;;;;;27.16;61.80;99616.66;5586632;31;34298;-71
2023/08/01 07:46:36;;;;;;;11.52;2.50;;;;;;;27.50;60.63;99603.63;5578612;31;246058;-71
2023/08/01 07:49:39;;;;;;;8.18;2.20;;;;;;;27.24;61.90;99608.66;5586574;31;33784;-71
2023/08/01 07:52:42;;;;;;;13.43;2.20;;;;;;;27.93;57.73;99601.50;5586665;31;33818;-70
2023/08/01 07:55:44;;;;;;;7.45;2.08;;;;;;;27.95;57.05;99595.75;5589955;31;34109;-70
2023/08/01 07:58:47;;;;;;;10.07;2.35;;;;;;;29.12;52.99;99591.44;5606068;31;33635;-71
2023/08/01 08:01:53;;;;;;;6.50;2.08;;;;;;;29.59;50.95;99592.75;5605949;31;34350;-72
2023/08/01 08:04:56;;;;;;;11.27;2.67;;;;;;;29.58;50.63;99588.44;5599810;31;34569;-72
2023/08/01 08:07:59;;;;;;;12.73;2.60;;;;;;;29.02;51.83;99576.09;5597539;31;32447;-72
2023/08/01 08:11:02;;;;;;;7.30;1.92;;;;;;;29.51;50.62;99574.37;5604508;31;33747;-72
2023/08/01 08:14:04;;;;;;;3.33;1.83;;;;;;;29.08;51.76;99572.13;5603371;31;34475;-71
2023/08/01 08:17:07;;;;;;;3.97;1.83;;;;;;;30.00;48.56;99570.66;5604566;31;33762;-72
2023/08/01 08:20:10;;;;;;;8.15;2.35;;;;;;;29.99;48.44;99571.78;5604855;31;33673;-72
2023/08/01 08:23:16;;;;;;;5.78;1.80;;;;;;;29.54;50.19;99574.56;5604942;31;34145;-72
2023/08/01 08:26:19;;;;;;;6.35;2.20;;;;;;;30.16;47.86;99569.13;5604747;31;33842;-71
2023/08/01 08:29:22;;;;;;;12.20;2.30;;;;;;;30.01;48.56;99562.16;5603709;31;34402;-72
2023/08/01 08:32:24;;;;;;;7.47;1.90;;;;;;;29.89;48.24;99572.06;5604473;31;33600;-72
2023/08/01 08:35:27;;;;;;;9.00;1.80;;;;;;;30.42;48.19;99575.47;5604898;31;33772;-71
2023/08/01 08:38:30;;;;;;;4.75;1.92;;;;;;;30.66;46.16;99572.31;5604667;31;33958;-73
2023/08/01 08:41:43;;;;;;;8.30;2.00;;;;;;;30.82;45.85;99565.25;5604245;31;34740;-72
2023/08/01 08:44:50;;;;;;;4.82;2.17;;;;;;;32.05;42.95;99554.59;5605210;31;33753;-72
2023/08/01 08:47:59;;;;;;;4.65;1.80;;;;;;;32.49;41.81;99559.53;5585283;31;33841;-71
2023/08/01 08:51:03;;;;;;;6.03;2.22;;;;;;;31.39;42.72;99560.41;5580773;31;34347;-71
2023/08/01 08:54:06;;;;;;;6.57;1.60;;;;;;;32.06;41.76;99556.19;5584443;31;33134;-72
2023/08/01 08:57:09;;;;;;;3.55;1.98;;;;;;;32.62;42.39;99549.47;5584948;31;33797;-71
2023/08/01 09:00:12;;;;;;;4.25;2.22;;;;;;;32.48;40.92;99555.22;5583989;31;33898;-71
2023/08/01 09:03:16;;;;;;;8.85;2.17;;;;;;;31.11;43.88;99550.13;5584197;31;34020;-71
2023/08/01 09:06:25;;;;;;;9.68;1.90;;;;;;;32.51;40.95;99551.78;5586211;31;33688;-72
2023/08/01 09:09:27;;;;;;;;;;;;;;;32.76;39.77;99531.59;5586605;31;33831;-72
2023/08/01 09:12:34;;;;;;;8.85;1.95;;;;;;;33.34;38.47;99523.50;5603831;31;34797;-71
2023/08/01 09:15:39;;;;;;;3.72;1.83;;;;;;;33.21;39.20;99513.63;5592670;31;34619;-72
2023/08/01 09:18:52;;;;;;;5.65;1.83;;;;;;;33.86;38.48;99526.50;5587386;31;33654;-72
2023/08/01 09:21:55;;;;;;;4.97;1.83;;;;;;;34.33;35.44;99519.38;5584607;31;32574;-72
2023/08/01 09:25:00;;;;;;;2.70;1.50;;;;;;;31.37;39.41;99510.59;5584286;31;33789;-71
2023/08/01 09:28:14;;;;;;;4.68;1.87;;;;;;;30.76;40.83;99511.75;5603210;31;33826;-71
2023/08/01 09:31:27;;;;;;;4.95;1.55;;;;;;;31.11;40.33;99498.87;5606569;31;35007;-72
2023/08/01 09:34:33;;;;;;;6.57;2.00;;;;;;;31.20;40.27;99496.94;5607455;31;34070;-72
2023/08/01 09:37:42;;;;;;;3.58;1.67;;;;;;;29.97;40.49;99495.50;5606183;31;34018;-71
2023/08/01 09:40:45;;;;;;;5.40;2.00;;;;;;;31.18;39.96;99468.25;5605797;31;34368;-71
2023/08/01 09:43:50;;;;;;;5.40;1.90;;;;;;;30.97;40.37;99471.66;5605293;31;34652;-71
2023/08/01 09:47:00;;;;;;;8.45;2.22;;;;;;;30.64;41.28;99482.28;5594258;31;34808;-71
2023/08/01 09:50:04;;;;;;;12.50;2.20;;;;;;;30.26;41.88;99477.72;5605423;31;33859;-71
2023/08/01 09:53:08;;;;;;;9.43;2.10;;;;;;;29.93;42.83;99475.37;5605768;31;33997;-71
2023/08/01 09:56:15;;;;;;;5.62;1.70;;;;;;;30.40;41.29;99473.72;5594384;31;33327;-70
2023/08/01 09:59:23;;;;;;;5.97;1.75;;;;;;;30.69;41.94;99462.16;5586029;31;34037;-71
2023/08/01 10:02:31;;;;;;;8.48;1.80;;;;;;;31.41;41.50;99473.19;5586514;31;34924;-71
2023/08/01 10:05:35;;;;;;;6.53;2.30;;;;;;;33.11;38.03;99462.59;5589438;31;33918;-70
2023/08/01 10:08:40;;;;;;;6.62;1.83;;;;;;;34.54;34.32;99455.88;5602877;31;33786;-72
2023/08/01 10:11:44;;;;;;;5.68;2.00;;;;;;;32.80;35.76;99449.31;5583892;31;31960;-71
2023/08/01 10:14:47;;;;;;;8.10;1.80;;;;;;;31.90;37.68;99444.25;5591429;31;33686;-72
2023/08/01 10:17:50;;;;;;;3.50;1.67;;;;;;;30.87;38.51;99443.78;5598064;31;33682;-71
2023/08/01 10:20:53;;;;;;;5.35;2.20;;;;;;;29.25;41.49;99435.66;5606094;31;33944;-71
2023/08/01 10:24:00;;;;;;;6.72;2.08;;;;;;;29.97;39.90;99431.78;5592537;31;33845;-71
2023/08/01 10:27:14;;;;;;;5.90;2.15;;;;;;;29.85;41.59;99432.38;5586578;31;34259;-71
2023/08/01 10:30:26;;;;;;;4.87;2.65;;;;;;;31.34;39.53;99422.72;5586826;31;34700;-72
2023/08/01 10:33:33;;;;;;;6.20;2.67;;;;;;;31.67;38.87;99395.50;5587560;31;33718;-70
2023/08/01 10:36:37;;;;;;;2.97;1.92;;;;;;;31.33;39.49;99410.97;5586321;31;33658;-71
2023/08/01 10:39:40;;;;;;;11.07;2.10;;;;;;;30.90;39.54;99404.78;5586955;31;33884;-71
2023/08/01 10:42:44;;;;;;;6.47;2.72;;;;;;;30.79;38.89;99409.78;5588954;31;33968;-71
2023/08/01 10:45:48;;;;;;;7.37;2.37;;;;;;;30.96;39.20;99398.00;5585999;31;33739;-71
2023/08/01 10:48:52;;;;;;;3.87;2.00;;;;;;;32.34;37.61;99411.88;5586031;31;34036;-69
2023/08/01 10:51:56;;;;;;;6.12;1.67;;;;;;;34.44;33.11;99401.28;5598920;31;33873;-72
2023/08/01 10:55:01;;;;;;;4.97;1.80;;;;;;;35.39;31.70;99394.81;5605923;31;33592;-71
2023/08/01 10:58:04;;;;;;;8.23;1.90;;;;;;;35.11;32.57;99397.66;5606686;31;34952;-71
2023/08/01 11:01:07;;;;;;;4.47;2.05;;;;;;;34.26;33.13;99386.22;5606984;31;34249;-71
2023/08/01 11:04:21;;;;;;;5.87;1.73;;;;;;;33.34;34.81;99380.53;5593102;31;33627;-71
2023/08/01 11:07:24;;;;;;;13.85;2.50;;;;;;;32.77;33.75;99375.84;5601992;31;34921;-71
2023/08/01 11:10:28;;;;;;;6.68;1.85;;;;;;;32.92;34.14;99372.41;5586802;31;34120;-71
2023/08/01 11:13:34;;;;;;;6.47;1.92;;;;;;;33.51;33.64;99372.03;5586276;31;33564;-71
2023/08/01 11:16:37;;;;;;;8.50;1.92;;;;;;;32.61;34.72;99358.34;5586065;31;34536;-72
2023/08/01 11:19:41;;;;;;;7.05;1.98;;;;;;;31.83;35.59;99358.16;5599826;31;33525;-72
2023/08/01 11:23:00;;;;;;;8.00;1.90;;;;;;;32.32;33.25;99354.59;5606400;31;33780;-72
2023/08/01 11:26:08;;;;;;;9.82;2.30;;;;;;;32.09;34.89;99352.50;5606247;31;33820;-71
2023/08/01 11:29:12;;;;;;;8.02;1.90;;;;;;;31.78;35.15;99350.12;5605178;31;33742;-71
2023/08/01 11:32:14;;;;;;;11.65;1.90;;;;;;;32.23;34.69;99340.13;5599721;31;34651;-71
2023/08/01 11:35:18;;;;;;;6.20;1.92;;;;;;;32.86;33.51;99340.03;5586887;31;33806;-72
2023/08/01 11:38:23;;;;;;;6.05;1.95;;;;;;;32.50;32.64;99329.69;5586450;31;33981;-71
2023/08/01 11:41:27;;;;;;;7.05;1.87;;;;;;;31.83;33.88;99322.50;5586207;31;33927;-72
2023/08/01 11:44:31;;;;;;;4.40;1.77;;;;;;;31.95;35.02;99322.59;5586079;31;34564;-72
2023/08/01 11:47:34;;;;;;;6.15;1.77;;;;;;;32.63;33.06;99309.38;5586565;31;33925;-72
2023/08/01 11:50:38;;;;;;;5.40;1.80;;;;;;;33.07;32.95;99305.00;5586742;31;34823;-72
2023/08/01 11:53:40;;;;;;;8.05;1.87;;;;;;;33.49;33.80;99305.59;5585259;31;34857;-71
2023/08/01 11:56:46;;;;;;;6.60;1.73;;;;;;;34.52;31.55;99303.94;5599014;31;32230;-72
2023/08/01 11:59:55;;;;;;;4.80;2.03;;;;;;;34.09;31.66;99301.13;5594882;31;34036;-71
2023/08/01 12:03:15;;;;;;;6.43;1.87;;;;;;;33.23;31.55;99289.47;5590988;31;33955;-70
2023/08/01 12:06:23;;;;;;;9.82;1.83;;;;;;;33.52;30.84;99282.91;5605293;31;34532;-73
2023/08/01 12:09:26;;;;;;;4.47;1.80;;;;;;;33.00;31.72;99280.84;5606192;31;34376;-71
2023/08/01 12:12:29;;;;;;;4.55;1.73;;;;;;;31.61;33.65;99265.25;5605048;31;33549;-70
2023/08/01 12:15:32;;;;;;;3.72;1.80;;;;;;;32.10;33.27;99271.75;5604689;31;34571;-71
2023/08/01 12:18:37;;;;;;;4.45;1.70;;;;;;;32.10;33.25;99263.53;5605816;31;33791;-69
2023/08/01 12:22:00;;;;;;;5.70;1.95;;;;;;;31.64;34.59;99248.13;5605258;31;33616;-71
2023/08/01 12:25:03;;;;;;;6.75;1.80;;;;;;;31.17;35.43;99247.44;5589097;31;33904;-70
2023/08/01 12:28:06;;;;;;;2.75;1.70;;;;;;;31.30;34.81;99236.22;5597666;31;33861;-71
2023/08/01 12:31:09;;;;;;;7.50;2.10;;;;;;;31.96;34.58;99230.09;5595624;31;33789;-70
2023/08/01 12:34:12;;;;;;;6.55;1.73;;;;;;;32.43;33.30;99236.13;5571928;31;33895;-71
2023/08/01 12:37:15;;;;;;;4.65;1.73;;;;;;;32.03;33.38;99236.66;5586070;31;33899;-72
2023/08/01 12:40:17;;;;;;;5.15;1.90;;;;;;;31.49;35.42;99235.78;5597151;31;34909;-72
2023/08/01 12:43:20;;;;;;;9.60;2.05;;;;;;;31.45;35.25;99215.66;5604990;31;34192;-71
2023/08/01 12:46:23;;;;;;;4.37;1.90;;;;;;;32.24;34.26;99203.72;5589336;31;33733;-71
2023/08/01 12:49:27;;;;;;;6.60;1.95;;;;;;;33.04;33.10;99215.81;5585583;31;34422;-70
2023/08/01 12:52:32;;;;;;;4.45;1.77;;;;;;;33.19;32.87;99217.09;5584650;31;33548;-71
2023/08/01 12:55:35;;;;;;;8.82;1.90;;;;;;;33.52;32.10;99214.97;5585000;31;33616;-72
2023/08/01 12:58:37;;;;;;;6.82;1.80;;;;;;;32.78;33.40;99210.66;5586340;31;32708;-71
2023/08/01 13:01:40;;;;;;;5.20;1.62;;;;;;;32.24;32.50;99207.22;5595342;31;33795;-71
2023/08/01 13:04:43;;;;;;;6.97;1.90;;;;;;;32.03;33.94;99195.50;5607471;31;33878;-70
2023/08/01 13:07:46;;;;;;;3.65;1.58;;;;;;;31.52;33.40;99193.97;5608052;31;33827;-71
2023/08/01 13:10:49;;;;;;;4.72;1.42;;;;;;;31.31;35.15;99182.22;5607095;31;34594;-70
2023/08/01 13:13:52;;;;;;;5.20;1.85;;;;;;;31.32;34.71;99187.34;5606747;31;33505;-72
2023/08/01 13:16:55;;;;;;;6.60;1.80;;;;;;;31.84;34.71;99187.78;5607812;31;34294;-70
2023/08/01 13:19:58;;;;;;;3.75;1.65;;;;;;;31.37;34.22;99189.12;5607609;31;34663;-71
2023/08/01 13:23:02;;;;;;;8.70;2.22;;;;;;;31.04;35.83;99184.31;5580902;31;33531;-71
2023/08/01 13:26:05;;;;;;;3.20;1.52;;;;;;;30.81;35.39;99180.25;5595116;31;32743;-69
2023/08/01 13:29:08;;;;;;;7.03;1.90;;;;;;;30.50;35.81;99177.81;5607335;31;34538;-70
2023/08/01 13:32:11;;;;;;;10.40;1.75;;;;;;;30.48;36.07;99177.34;5607821;31;34124;-70
2023/08/01 13:35:15;;;;;;;9.05;1.73;;;;;;;30.77;35.55;99179.31;5607384;31;34015;-70
2023/08/01 13:38:18;;;;;;;6.80;1.80;;;;;;;30.88;34.81;99163.31;5607658;31;33655;-71
2023/08/01 13:41:20;;;;;;;6.75;1.70;;;;;;;31.98;34.66;99171.00;5607877;31;33794;-70
2023/08/01 13:44:23;;;;;;;4.43;1.70;;;;;;;32.99;31.92;99166.59;5606977;31;34732;-69
2023/08/01 13:47:26;;;;;;;4.43;1.30;;;;;;;32.97;31.32;99154.34;5607272;31;33806;-69
2023/08/01 13:50:30;;;;;;;3.08;1.70;;;;;;;32.51;32.38;99153.63;5607251;31;34743;-69
2023/08/01 13:53:33;;;;;;;6.30;1.77;;;;;;;32.11;33.07;99153.47;5607228;31;33536;-69
2023/08/01 13:56:37;;;;;;;5.78;1.80;;;;;;;33.22;31.52;99158.66;5607308;31;33937;-69
2023/08/01 13:59:41;;;;;;;5.80;1.83;;;;;;;33.19;30.96;99149.19;5607391;31;34337;-71
2023/08/01 14:02:44;;;;;;;7.22;1.70;;;;;;;33.29;30.95;99147.87;5607076;31;34533;-70
2023/08/01 14:05:49;;;;;;;7.65;1.90;;;;;;;32.11;32.81;99152.66;5607218;31;34102;-68
2023/08/01 14:08:52;;;;;;;4.00;1.73;;;;;;;32.63;31.46;99139.94;5589905;31;35169;-69
2023/08/01 14:11:54;;;;;;;4.10;1.58;;;;;;;32.65;31.41;99145.09;5586138;31;33818;-70
2023/08/01 14:14:57;;;;;;;7.03;1.70;;;;;;;32.64;31.70;99143.47;5597652;31;34652;-69
2023/08/01 14:18:00;;;;;;;6.87;1.70;;;;;;;35.34;28.18;99146.91;5594659;31;33913;-69